sensor_id;sensor_type;location;lat;lon;timestamp;pressure;altitude;pressure_sealevel;temperature;humidity
58072;BME280;60383;46.626;18.866;2023-02-28T00:01:30;101563.44;;;1.15;63.85
58072;BME280;60383;46.626;18.866;2023-02-28T00:03:55;101568.16;;;1.31;63.08
58072;BME280;60383;46.626;18.866;2023-02-28T00:06:21;101574.19;;;1.17;63.22
58072;BME280;60383;46.626;18.866;2023-02-28T00:08:46;101572.28;;;1.19;63.28
58072;BME280;60383;46.626;18.866;2023-02-28T00:11:13;101576.28;;;1.10;63.29
58072;BME280;60383;46.626;18.866;2023-02-28T00:13:42;101584.47;;;1.27;63.14
58072;BME280;60383;46.626;18.866;2023-02-28T00:16:14;101588.34;;;1.22;63.77
58072;BME280;60383;46.626;18.866;2023-02-28T00:18:40;101580.75;;;1.11;62.96
58072;BME280;60383;46.626;18.866;2023-02-28T00:21:06;101592.34;;;1.34;63.47
58072;BME280;60383;46.626;18.866;2023-02-28T00:23:32;101582.22;;;1.18;63.01
58072;BME280;60383;46.626;18.866;2023-02-28T00:25:58;101600.34;;;1.35;63.01
58072;BME280;60383;46.626;18.866;2023-02-28T00:28:24;101586.31;;;1.27;62.35
58072;BME280;60383;46.626;18.866;2023-02-28T00:30:49;101594.94;;;1.35;64.26
58072;BME280;60383;46.626;18.866;2023-02-28T00:33:16;101598.34;;;1.20;64.48
58072;BME280;60383;46.626;18.866;2023-02-28T00:35:41;101608.19;;;1.00;66.35
58072;BME280;60383;46.626;18.866;2023-02-28T00:38:07;101603.91;;;0.94;67.73
58072;BME280;60383;46.626;18.866;2023-02-28T00:40:33;101608.03;;;1.03;67.66
58072;BME280;60383;46.626;18.866;2023-02-28T00:42:58;101604.44;;;0.61;68.31
58072;BME280;60383;46.626;18.866;2023-02-28T00:45:23;101612.47;;;0.19;70.84
58072;BME280;60383;46.626;18.866;2023-02-28T00:47:49;101608.78;;;-0.03;71.94
58072;BME280;60383;46.626;18.866;2023-02-28T00:50:18;101605.94;;;0.24;72.95
58072;BME280;60383;46.626;18.866;2023-02-28T00:52:45;101606.91;;;-0.01;73.30
58072;BME280;60383;46.626;18.866;2023-02-28T00:55:10;101609.53;;;0.01;73.24
58072;BME280;60383;46.626;18.866;2023-02-28T00:57:36;101598.81;;;0.23;72.67
58072;BME280;60383;46.626;18.866;2023-02-28T01:00:02;101599.28;;;0.11;73.82
58072;BME280;60383;46.626;18.866;2023-02-28T01:02:28;101602.69;;;0.16;73.99
58072;BME280;60383;46.626;18.866;2023-02-28T01:04:54;101603.41;;;-0.03;75.14
58072;BME280;60383;46.626;18.866;2023-02-28T01:07:19;101601.78;;;-0.07;76.26
58072;BME280;60383;46.626;18.866;2023-02-28T01:09:45;101599.16;;;0.14;76.29
58072;BME280;60383;46.626;18.866;2023-02-28T01:12:10;101593.53;;;0.42;75.93
58072;BME280;60383;46.626;18.866;2023-02-28T01:14:36;101588.31;;;0.15;75.67
58072;BME280;60383;46.626;18.866;2023-02-28T01:17:01;101587.56;;;0.12;76.94
58072;BME280;60383;46.626;18.866;2023-02-28T01:19:27;101594.88;;;-0.14;77.74
58072;BME280;60383;46.626;18.866;2023-02-28T01:21:52;101594.22;;;0.03;77.88
58072;BME280;60383;46.626;18.866;2023-02-28T01:24:18;101592.00;;;-0.33;79.40
58072;BME280;60383;46.626;18.866;2023-02-28T01:26:43;101593.69;;;-0.30;79.37
58072;BME280;60383;46.626;18.866;2023-02-28T01:29:09;101590.47;;;-0.40;80.27
58072;BME280;60383;46.626;18.866;2023-02-28T01:31:34;101594.28;;;-0.22;80.12
58072;BME280;60383;46.626;18.866;2023-02-28T01:34:00;101592.88;;;-0.56;81.84
58072;BME280;60383;46.626;18.866;2023-02-28T01:36:25;101595.44;;;-0.28;81.48
58072;BME280;60383;46.626;18.866;2023-02-28T01:38:51;101592.06;;;-0.35;81.56
58072;BME280;60383;46.626;18.866;2023-02-28T01:41:24;101602.09;;;-0.14;81.02
58072;BME280;60383;46.626;18.866;2023-02-28T01:46:15;101588.00;;;-0.45;82.34
58072;BME280;60383;46.626;18.866;2023-02-28T01:48:48;101597.16;;;-0.03;81.63
58072;BME280;60383;46.626;18.866;2023-02-28T01:51:24;101583.47;;;-0.44;82.81
58072;BME280;60383;46.626;18.866;2023-02-28T01:53:56;101585.50;;;-0.51;83.70
58072;BME280;60383;46.626;18.866;2023-02-28T01:56:28;101588.44;;;-0.57;84.66
58072;BME280;60383;46.626;18.866;2023-02-28T01:58:54;101579.47;;;-0.34;84.23
58072;BME280;60383;46.626;18.866;2023-02-28T02:01:22;101586.41;;;-0.51;84.24
58072;BME280;60383;46.626;18.866;2023-02-28T02:03:53;101582.16;;;-0.34;83.88
58072;BME280;60383;46.626;18.866;2023-02-28T02:06:29;101571.75;;;-0.67;85.03
58072;BME280;60383;46.626;18.866;2023-02-28T02:08:55;101574.06;;;-0.33;83.96
58072;BME280;60383;46.626;18.866;2023-02-28T02:11:23;101577.53;;;-0.30;83.68
58072;BME280;60383;46.626;18.866;2023-02-28T02:22:35;101572.91;;;-0.27;83.50
58072;BME280;60383;46.626;18.866;2023-02-28T02:25:31;101579.22;;;-0.04;83.11
58072;BME280;60383;46.626;18.866;2023-02-28T02:33:34;101577.78;;;0.09;80.49
58072;BME280;60383;46.626;18.866;2023-02-28T02:41:19;101574.56;;;-0.23;82.79
58072;BME280;60383;46.626;18.866;2023-02-28T02:44:06;101570.78;;;-0.41;83.26
58072;BME280;60383;46.626;18.866;2023-02-28T02:46:44;101574.91;;;-0.32;83.49
58072;BME280;60383;46.626;18.866;2023-02-28T02:49:15;101576.25;;;-0.44;82.87
58072;BME280;60383;46.626;18.866;2023-02-28T02:51:44;101588.78;;;-0.43;83.31
58072;BME280;60383;46.626;18.866;2023-02-28T02:54:23;101584.94;;;-0.59;83.36
58072;BME280;60383;46.626;18.866;2023-02-28T02:56:55;101580.94;;;-0.49;83.06
58072;BME280;60383;46.626;18.866;2023-02-28T02:59:23;101570.09;;;-0.46;83.27
58072;BME280;60383;46.626;18.866;2023-02-28T03:01:55;101572.38;;;-0.35;83.60
58072;BME280;60383;46.626;18.866;2023-02-28T03:04:23;101567.75;;;-0.31;82.53
58072;BME280;60383;46.626;18.866;2023-02-28T03:06:51;101571.19;;;-0.28;81.61
58072;BME280;60383;46.626;18.866;2023-02-28T03:09:24;101559.66;;;-0.31;82.19
58072;BME280;60383;46.626;18.866;2023-02-28T03:11:52;101567.91;;;-0.36;81.63
58072;BME280;60383;46.626;18.866;2023-02-28T03:14:26;101561.53;;;-0.34;81.18
58072;BME280;60383;46.626;18.866;2023-02-28T03:24:58;101566.50;;;-0.46;80.94
58072;BME280;60383;46.626;18.866;2023-02-28T03:30:06;101567.72;;;-0.55;81.49
58072;BME280;60383;46.626;18.866;2023-02-28T03:32:50;101563.53;;;-0.39;81.15
58072;BME280;60383;46.626;18.866;2023-02-28T03:35:24;101567.16;;;-0.40;81.31
58072;BME280;60383;46.626;18.866;2023-02-28T03:37:53;101561.13;;;-0.46;81.08
58072;BME280;60383;46.626;18.866;2023-02-28T03:40:25;101554.09;;;-0.51;81.39
58072;BME280;60383;46.626;18.866;2023-02-28T03:42:58;101562.50;;;-0.60;82.75
58072;BME280;60383;46.626;18.866;2023-02-28T03:45:27;101567.72;;;-0.55;81.34
58072;BME280;60383;46.626;18.866;2023-02-28T03:47:58;101562.88;;;-0.45;81.29
58072;BME280;60383;46.626;18.866;2023-02-28T03:50:47;101562.25;;;-0.52;80.95
58072;BME280;60383;46.626;18.866;2023-02-28T03:55:47;101570.13;;;-0.47;81.14
58072;BME280;60383;46.626;18.866;2023-02-28T04:00:46;101565.03;;;-0.55;80.32
58072;BME280;60383;46.626;18.866;2023-02-28T04:03:13;101560.34;;;-0.50;80.07
58072;BME280;60383;46.626;18.866;2023-02-28T04:05:52;101560.34;;;-0.50;79.90
58072;BME280;60383;46.626;18.866;2023-02-28T04:08:19;101563.63;;;-0.42;79.85
58072;BME280;60383;46.626;18.866;2023-02-28T04:10:52;101566.75;;;-0.29;79.32
58072;BME280;60383;46.626;18.866;2023-02-28T04:13:19;101559.19;;;-0.19;78.25
58072;BME280;60383;46.626;18.866;2023-02-28T04:15:45;101567.13;;;-0.16;79.03
58072;BME280;60383;46.626;18.866;2023-02-28T04:18:10;101569.09;;;0.03;77.93
58072;BME280;60383;46.626;18.866;2023-02-28T04:20:36;101556.16;;;0.11;77.86
58072;BME280;60383;46.626;18.866;2023-02-28T04:23:01;101564.22;;;0.12;77.01
58072;BME280;60383;46.626;18.866;2023-02-28T04:25:27;101563.06;;;-0.04;77.72
58072;BME280;60383;46.626;18.866;2023-02-28T04:27:52;101557.69;;;-0.04;77.69
58072;BME280;60383;46.626;18.866;2023-02-28T04:30:17;101563.56;;;0.06;78.13
58072;BME280;60383;46.626;18.866;2023-02-28T04:32:43;101557.38;;;0.04;77.35
58072;BME280;60383;46.626;18.866;2023-02-28T04:35:08;101562.19;;;-0.05;78.23
58072;BME280;60383;46.626;18.866;2023-02-28T04:37:34;101562.06;;;-0.02;78.31
58072;BME280;60383;46.626;18.866;2023-02-28T04:40:02;101561.53;;;0.12;77.71
58072;BME280;60383;46.626;18.866;2023-02-28T04:42:28;101550.66;;;0.36;77.09
58072;BME280;60383;46.626;18.866;2023-02-28T04:45:01;101548.91;;;0.35;76.94
58072;BME280;60383;46.626;18.866;2023-02-28T04:47:26;101558.94;;;0.31;76.59
58072;BME280;60383;46.626;18.866;2023-02-28T04:49:51;101558.75;;;0.14;76.65
58072;BME280;60383;46.626;18.866;2023-02-28T04:52:17;101558.84;;;0.12;77.09
58072;BME280;60383;46.626;18.866;2023-02-28T04:54:42;101548.59;;;0.21;77.35
58072;BME280;60383;46.626;18.866;2023-02-28T04:57:08;101554.44;;;0.10;77.34
58072;BME280;60383;46.626;18.866;2023-02-28T04:59:33;101554.69;;;0.26;77.52
58072;BME280;60383;46.626;18.866;2023-02-28T05:01:59;101554.88;;;0.21;77.68
58072;BME280;60383;46.626;18.866;2023-02-28T05:04:24;101559.59;;;0.16;77.75
58072;BME280;60383;46.626;18.866;2023-02-28T05:06:49;101543.72;;;0.30;77.03
58072;BME280;60383;46.626;18.866;2023-02-28T05:09:15;101544.72;;;0.06;78.33
58072;BME280;60383;46.626;18.866;2023-02-28T05:11:41;101550.50;;;0.19;77.87
58072;BME280;60383;46.626;18.866;2023-02-28T05:14:11;101547.59;;;0.01;78.36
58072;BME280;60383;46.626;18.866;2023-02-28T05:16:37;101554.66;;;0.04;78.67
58072;BME280;60383;46.626;18.866;2023-02-28T05:19:03;101549.25;;;0.05;78.29
58072;BME280;60383;46.626;18.866;2023-02-28T05:21:32;101555.38;;;0.09;78.66
58072;BME280;60383;46.626;18.866;2023-02-28T05:24:01;101553.13;;;-0.02;78.44
58072;BME280;60383;46.626;18.866;2023-02-28T05:26:27;101546.22;;;-0.09;78.74
58072;BME280;60383;46.626;18.866;2023-02-28T05:28:53;101549.50;;;-0.25;78.52
58072;BME280;60383;46.626;18.866;2023-02-28T05:31:19;101544.78;;;-0.18;78.99
58072;BME280;60383;46.626;18.866;2023-02-28T05:33:44;101547.34;;;-0.15;78.61
58072;BME280;60383;46.626;18.866;2023-02-28T05:36:10;101548.66;;;-0.25;77.47
58072;BME280;60383;46.626;18.866;2023-02-28T05:38:36;101546.31;;;-0.35;76.85
58072;BME280;60383;46.626;18.866;2023-02-28T05:41:08;101556.50;;;-0.43;76.72
58072;BME280;60383;46.626;18.866;2023-02-28T05:43:34;101562.19;;;-0.51;75.84
58072;BME280;60383;46.626;18.866;2023-02-28T05:46:05;101570.72;;;-0.39;74.65
58072;BME280;60383;46.626;18.866;2023-02-28T05:48:31;101564.56;;;-0.43;73.44
58072;BME280;60383;46.626;18.866;2023-02-28T05:50:57;101577.53;;;-0.30;73.63
58072;BME280;60383;46.626;18.866;2023-02-28T05:53:23;101570.88;;;-0.20;73.27
58072;BME280;60383;46.626;18.866;2023-02-28T05:55:48;101580.53;;;-0.14;73.30
58072;BME280;60383;46.626;18.866;2023-02-28T05:58:14;101584.34;;;-0.20;72.56
58072;BME280;60383;46.626;18.866;2023-02-28T06:00:39;101594.88;;;-0.14;72.41
58072;BME280;60383;46.626;18.866;2023-02-28T06:03:05;101598.09;;;-0.04;72.28
58072;BME280;60383;46.626;18.866;2023-02-28T06:05:30;101598.97;;;-0.04;72.29
58072;BME280;60383;46.626;18.866;2023-02-28T06:07:56;101601.28;;;0.06;71.80
58072;BME280;60383;46.626;18.866;2023-02-28T06:10:21;101598.84;;;-0.01;71.55
58072;BME280;60383;46.626;18.866;2023-02-28T06:12:46;101609.94;;;0.14;71.31
58072;BME280;60383;46.626;18.866;2023-02-28T06:15:15;101608.53;;;0.04;71.04
58072;BME280;60383;46.626;18.866;2023-02-28T06:17:43;101612.72;;;0.12;71.34
58072;BME280;60383;46.626;18.866;2023-02-28T06:20:10;101611.63;;;0.17;71.90
58072;BME280;60383;46.626;18.866;2023-02-28T06:22:38;101615.91;;;0.22;71.48
58072;BME280;60383;46.626;18.866;2023-02-28T06:25:04;101623.50;;;0.35;71.67
58072;BME280;60383;46.626;18.866;2023-02-28T06:27:31;101626.94;;;0.60;69.75
58072;BME280;60383;46.626;18.866;2023-02-28T06:29:57;101623.75;;;0.51;69.57
58072;BME280;60383;46.626;18.866;2023-02-28T06:32:22;101627.00;;;0.59;68.88
58072;BME280;60383;46.626;18.866;2023-02-28T06:34:48;101639.91;;;0.73;68.56
58072;BME280;60383;46.626;18.866;2023-02-28T06:37:14;101635.66;;;0.67;68.00
58072;BME280;60383;46.626;18.866;2023-02-28T06:39:39;101637.34;;;0.70;67.21
58072;BME280;60383;46.626;18.866;2023-02-28T06:42:05;101633.31;;;0.80;67.28
58072;BME280;60383;46.626;18.866;2023-02-28T06:44:30;101634.75;;;0.89;66.39
58072;BME280;60383;46.626;18.866;2023-02-28T06:47:04;101632.00;;;0.90;67.15
58072;BME280;60383;46.626;18.866;2023-02-28T06:49:31;101632.91;;;0.69;66.78
58072;BME280;60383;46.626;18.866;2023-02-28T06:51:56;101644.75;;;0.65;67.57
58072;BME280;60383;46.626;18.866;2023-02-28T06:54:22;101645.44;;;0.70;66.70
58072;BME280;60383;46.626;18.866;2023-02-28T06:56:47;101645.06;;;1.00;65.04
58072;BME280;60383;46.626;18.866;2023-02-28T06:59:13;101639.34;;;0.87;66.49
58072;BME280;60383;46.626;18.866;2023-02-28T07:01:39;101642.00;;;0.66;66.36
58072;BME280;60383;46.626;18.866;2023-02-28T07:04:05;101644.81;;;0.85;65.99
58072;BME280;60383;46.626;18.866;2023-02-28T07:06:31;101640.00;;;0.92;66.89
58072;BME280;60383;46.626;18.866;2023-02-28T07:08:57;101641.97;;;0.88;67.07
58072;BME280;60383;46.626;18.866;2023-02-28T07:11:25;101642.91;;;0.87;66.28
58072;BME280;60383;46.626;18.866;2023-02-28T07:13:54;101644.47;;;0.93;67.36
58072;BME280;60383;46.626;18.866;2023-02-28T07:16:21;101654.53;;;0.67;67.38
58072;BME280;60383;46.626;18.866;2023-02-28T07:18:47;101659.91;;;0.89;67.45
58072;BME280;60383;46.626;18.866;2023-02-28T07:21:13;101651.16;;;1.05;66.60
58072;BME280;60383;46.626;18.866;2023-02-28T07:23:40;101655.47;;;1.30;65.20
58072;BME280;60383;46.626;18.866;2023-02-28T07:26:10;101649.00;;;1.54;64.24
58072;BME280;60383;46.626;18.866;2023-02-28T07:28:36;101641.13;;;1.29;65.49
58072;BME280;60383;46.626;18.866;2023-02-28T07:31:04;101646.03;;;1.19;65.01
58072;BME280;60383;46.626;18.866;2023-02-28T07:33:30;101646.31;;;1.13;65.51
58072;BME280;60383;46.626;18.866;2023-02-28T07:36:07;101642.59;;;1.36;64.25
58072;BME280;60383;46.626;18.866;2023-02-28T07:38:37;101640.84;;;1.15;66.36
58072;BME280;60383;46.626;18.866;2023-02-28T07:41:03;101640.41;;;1.03;66.58
58072;BME280;60383;46.626;18.866;2023-02-28T07:43:32;101646.56;;;1.27;66.22
58072;BME280;60383;46.626;18.866;2023-02-28T07:46:06;101638.06;;;1.16;66.06
58072;BME280;60383;46.626;18.866;2023-02-28T07:48:32;101637.06;;;1.19;67.20
58072;BME280;60383;46.626;18.866;2023-02-28T07:50:58;101639.84;;;1.17;67.70
58072;BME280;60383;46.626;18.866;2023-02-28T07:53:25;101634.16;;;1.23;67.05
58072;BME280;60383;46.626;18.866;2023-02-28T07:55:51;101626.91;;;1.44;66.98
58072;BME280;60383;46.626;18.866;2023-02-28T07:58:19;101637.69;;;1.65;66.18
58072;BME280;60383;46.626;18.866;2023-02-28T08:00:44;101630.78;;;1.79;65.99
58072;BME280;60383;46.626;18.866;2023-02-28T08:03:13;101624.91;;;1.69;65.60
58072;BME280;60383;46.626;18.866;2023-02-28T08:05:39;101632.06;;;1.51;66.54
58072;BME280;60383;46.626;18.866;2023-02-28T08:08:06;101621.47;;;1.65;66.54
58072;BME280;60383;46.626;18.866;2023-02-28T08:10:31;101631.84;;;1.55;67.03
58072;BME280;60383;46.626;18.866;2023-02-28T08:12:57;101629.25;;;1.73;64.35
58072;BME280;60383;46.626;18.866;2023-02-28T08:15:22;101632.78;;;1.75;65.59
58072;BME280;60383;46.626;18.866;2023-02-28T08:17:48;101619.75;;;1.83;63.56
58072;BME280;60383;46.626;18.866;2023-02-28T08:20:13;101629.84;;;1.99;63.50
58072;BME280;60383;46.626;18.866;2023-02-28T08:22:39;101636.03;;;2.20;63.77
58072;BME280;60383;46.626;18.866;2023-02-28T08:25:05;101631.75;;;1.97;62.71
58072;BME280;60383;46.626;18.866;2023-02-28T08:27:32;101637.88;;;1.81;63.26
58072;BME280;60383;46.626;18.866;2023-02-28T08:29:58;101637.25;;;2.14;63.21
58072;BME280;60383;46.626;18.866;2023-02-28T08:32:23;101637.38;;;1.92;63.61
58072;BME280;60383;46.626;18.866;2023-02-28T08:34:48;101648.28;;;2.29;63.03
58072;BME280;60383;46.626;18.866;2023-02-28T08:37:14;101643.72;;;2.29;62.94
58072;BME280;60383;46.626;18.866;2023-02-28T08:39:39;101638.00;;;2.16;63.35
58072;BME280;60383;46.626;18.866;2023-02-28T08:42:05;101631.97;;;2.30;63.98
58072;BME280;60383;46.626;18.866;2023-02-28T08:44:30;101634.88;;;2.45;62.42
58072;BME280;60383;46.626;18.866;2023-02-28T08:46:56;101635.19;;;2.19;63.49
58072;BME280;60383;46.626;18.866;2023-02-28T08:49:21;101643.50;;;2.34;62.15
58072;BME280;60383;46.626;18.866;2023-02-28T08:51:47;101643.09;;;2.61;61.83
58072;BME280;60383;46.626;18.866;2023-02-28T08:54:12;101632.59;;;2.35;62.10
58072;BME280;60383;46.626;18.866;2023-02-28T08:56:38;101644.13;;;2.58;61.90
58072;BME280;60383;46.626;18.866;2023-02-28T08:59:03;101637.44;;;2.84;61.70
58072;BME280;60383;46.626;18.866;2023-02-28T09:01:29;101638.94;;;2.53;61.83
58072;BME280;60383;46.626;18.866;2023-02-28T09:03:57;101635.31;;;2.72;62.16
58072;BME280;60383;46.626;18.866;2023-02-28T09:06:25;101634.53;;;2.70;62.93
58072;BME280;60383;46.626;18.866;2023-02-28T09:08:50;101636.81;;;2.60;62.81
58072;BME280;60383;46.626;18.866;2023-02-28T09:11:16;101636.56;;;2.65;63.55
58072;BME280;60383;46.626;18.866;2023-02-28T09:13:42;101638.91;;;2.36;63.37
58072;BME280;60383;46.626;18.866;2023-02-28T09:16:11;101637.50;;;2.46;63.33
58072;BME280;60383;46.626;18.866;2023-02-28T09:18:37;101636.44;;;2.68;62.19
58072;BME280;60383;46.626;18.866;2023-02-28T09:21:04;101638.00;;;2.54;63.09
58072;BME280;60383;46.626;18.866;2023-02-28T09:23:30;101634.44;;;2.54;62.81
58072;BME280;60383;46.626;18.866;2023-02-28T09:25:56;101630.25;;;2.83;61.47
58072;BME280;60383;46.626;18.866;2023-02-28T09:28:21;101632.78;;;2.69;62.66
58072;BME280;60383;46.626;18.866;2023-02-28T09:30:50;101625.34;;;2.55;63.60
58072;BME280;60383;46.626;18.866;2023-02-28T09:33:17;101637.88;;;2.75;63.13
58072;BME280;60383;46.626;18.866;2023-02-28T09:35:45;101634.00;;;2.81;62.86
58072;BME280;60383;46.626;18.866;2023-02-28T09:38:11;101625.53;;;2.69;64.16
58072;BME280;60383;46.626;18.866;2023-02-28T09:40:40;101630.59;;;2.21;65.11
58072;BME280;60383;46.626;18.866;2023-02-28T09:43:12;101632.69;;;2.34;64.64
58072;BME280;60383;46.626;18.866;2023-02-28T09:45:42;101635.41;;;2.34;65.57
58072;BME280;60383;46.626;18.866;2023-02-28T09:48:19;101628.72;;;2.60;64.78
58072;BME280;60383;46.626;18.866;2023-02-28T09:50:48;101639.38;;;2.44;64.80
58072;BME280;60383;46.626;18.866;2023-02-28T09:53:32;101633.41;;;2.74;64.35
58072;BME280;60383;46.626;18.866;2023-02-28T09:56:04;101634.63;;;2.86;63.18
58072;BME280;60383;46.626;18.866;2023-02-28T10:06:20;101649.28;;;3.34;61.60
58072;BME280;60383;46.626;18.866;2023-02-28T10:09:02;101643.50;;;3.25;61.67
58072;BME280;60383;46.626;18.866;2023-02-28T10:11:29;101649.06;;;3.39;61.55
58072;BME280;60383;46.626;18.866;2023-02-28T10:14:16;101640.28;;;3.34;62.21
58072;BME280;60383;46.626;18.866;2023-02-28T10:17:00;101647.13;;;3.41;63.61
58072;BME280;60383;46.626;18.866;2023-02-28T10:19:40;101647.34;;;3.54;63.29
58072;BME280;60383;46.626;18.866;2023-02-28T10:22:17;101646.81;;;3.30;62.05
58072;BME280;60383;46.626;18.866;2023-02-28T10:24:52;101650.06;;;3.36;61.89
58072;BME280;60383;46.626;18.866;2023-02-28T10:27:23;101644.25;;;3.27;62.90
58072;BME280;60383;46.626;18.866;2023-02-28T10:29:51;101652.53;;;3.41;62.70
58072;BME280;60383;46.626;18.866;2023-02-28T10:32:20;101645.53;;;3.37;62.39
58072;BME280;60383;46.626;18.866;2023-02-28T10:35:21;101653.81;;;3.34;63.25
58072;BME280;60383;46.626;18.866;2023-02-28T10:37:53;101653.19;;;3.29;62.54
58072;BME280;60383;46.626;18.866;2023-02-28T10:43:03;101641.41;;;3.12;63.02
58072;BME280;60383;46.626;18.866;2023-02-28T10:45:33;101639.41;;;3.33;63.10
58072;BME280;60383;46.626;18.866;2023-02-28T10:50:44;101636.13;;;3.27;63.48
58072;BME280;60383;46.626;18.866;2023-02-28T10:55:59;101629.19;;;3.39;63.09
58072;BME280;60383;46.626;18.866;2023-02-28T10:58:33;101626.91;;;3.31;62.55
58072;BME280;60383;46.626;18.866;2023-02-28T11:01:14;101622.97;;;3.36;63.54
58072;BME280;60383;46.626;18.866;2023-02-28T11:03:40;101611.63;;;3.30;63.17
58072;BME280;60383;46.626;18.866;2023-02-28T11:06:08;101612.25;;;3.35;63.43
58072;BME280;60383;46.626;18.866;2023-02-28T11:09:06;101604.44;;;3.29;63.84
58072;BME280;60383;46.626;18.866;2023-02-28T11:11:45;101600.53;;;3.17;65.08
58072;BME280;60383;46.626;18.866;2023-02-28T11:14:24;101611.13;;;3.39;63.65
58072;BME280;60383;46.626;18.866;2023-02-28T11:16:51;101607.94;;;3.64;62.63
58072;BME280;60383;46.626;18.866;2023-02-28T11:19:26;101604.81;;;3.56;63.08
58072;BME280;60383;46.626;18.866;2023-02-28T11:22:00;101598.28;;;3.76;63.13
58072;BME280;60383;46.626;18.866;2023-02-28T11:24:37;101601.00;;;3.92;63.32
58072;BME280;60383;46.626;18.866;2023-02-28T11:29:56;101594.88;;;3.73;64.24
58072;BME280;60383;46.626;18.866;2023-02-28T11:32:26;101597.34;;;3.77;64.25
58072;BME280;60383;46.626;18.866;2023-02-28T11:37:37;101570.44;;;3.90;61.71
58072;BME280;60383;46.626;18.866;2023-02-28T11:40:12;101592.38;;;4.02;61.58
58072;BME280;60383;46.626;18.866;2023-02-28T11:42:53;101582.59;;;3.99;62.50
58072;BME280;60383;46.626;18.866;2023-02-28T11:45:34;101586.59;;;4.24;61.75
58072;BME280;60383;46.626;18.866;2023-02-28T11:56:29;101566.84;;;4.22;60.40
58072;BME280;60383;46.626;18.866;2023-02-28T11:59:10;101562.03;;;4.27;61.66
58072;BME280;60383;46.626;18.866;2023-02-28T12:10:04;101562.03;;;4.11;61.48
58072;BME280;60383;46.626;18.866;2023-02-28T12:15:20;101551.97;;;3.97;62.41
58072;BME280;60383;46.626;18.866;2023-02-28T12:23:42;101545.16;;;4.22;61.12
58072;BME280;60383;46.626;18.866;2023-02-28T12:28:48;101547.50;;;4.12;61.76
58072;BME280;60383;46.626;18.866;2023-02-28T12:31:28;101540.75;;;4.19;61.75
58072;BME280;60383;46.626;18.866;2023-02-28T12:34:00;101545.22;;;4.20;62.01
58072;BME280;60383;46.626;18.866;2023-02-28T12:36:26;101540.06;;;4.15;62.80
58072;BME280;60383;46.626;18.866;2023-02-28T12:39:01;101534.31;;;4.22;63.10
58072;BME280;60383;46.626;18.866;2023-02-28T12:41:41;101533.19;;;4.10;62.21
58072;BME280;60383;46.626;18.866;2023-02-28T12:44:26;101530.00;;;4.18;62.25
58072;BME280;60383;46.626;18.866;2023-02-28T12:46:58;101528.38;;;3.99;62.54
58072;BME280;60383;46.626;18.866;2023-02-28T12:49:32;101523.28;;;4.09;63.20
58072;BME280;60383;46.626;18.866;2023-02-28T12:52:00;101527.41;;;4.16;63.06
58072;BME280;60383;46.626;18.866;2023-02-28T12:57:32;101519.34;;;4.14;62.06
58072;BME280;60383;46.626;18.866;2023-02-28T13:00:10;101525.56;;;4.00;62.55
58072;BME280;60383;46.626;18.866;2023-02-28T13:08:10;101521.72;;;3.89;62.70
58072;BME280;60383;46.626;18.866;2023-02-28T13:10:45;101515.94;;;3.95;62.39
58072;BME280;60383;46.626;18.866;2023-02-28T13:13:17;101513.50;;;3.90;62.73
58072;BME280;60383;46.626;18.866;2023-02-28T13:16:04;101519.63;;;3.94;63.15
58072;BME280;60383;46.626;18.866;2023-02-28T13:18:36;101525.56;;;3.84;63.31
58072;BME280;60383;46.626;18.866;2023-02-28T13:21:06;101516.38;;;4.03;63.19
58072;BME280;60383;46.626;18.866;2023-02-28T13:26:12;101511.47;;;3.78;64.24
58072;BME280;60383;46.626;18.866;2023-02-28T13:28:59;101508.44;;;4.00;64.71
58072;BME280;60383;46.626;18.866;2023-02-28T13:31:26;101514.97;;;3.96;62.74
58072;BME280;60383;46.626;18.866;2023-02-28T13:36:26;101510.09;;;4.03;64.14
58072;BME280;60383;46.626;18.866;2023-02-28T14:04:03;101522.66;;;3.72;65.72
58072;BME280;60383;46.626;18.866;2023-02-28T14:06:33;101517.69;;;3.80;65.85
58072;BME280;60383;46.626;18.866;2023-02-28T14:09:00;101522.41;;;3.76;65.48
58072;BME280;60383;46.626;18.866;2023-02-28T14:11:30;101521.97;;;3.68;65.20
58072;BME280;60383;46.626;18.866;2023-02-28T14:13:56;101518.13;;;3.72;65.95
58072;BME280;60383;46.626;18.866;2023-02-28T14:16:27;101520.59;;;3.77;65.88
58072;BME280;60383;46.626;18.866;2023-02-28T14:19:13;101518.91;;;3.58;65.27
58072;BME280;60383;46.626;18.866;2023-02-28T14:30:37;101500.97;;;3.72;65.36
58072;BME280;60383;46.626;18.866;2023-02-28T14:36:03;101498.81;;;3.78;66.02
58072;BME280;60383;46.626;18.866;2023-02-28T14:39:06;101494.16;;;3.48;66.86
58072;BME280;60383;46.626;18.866;2023-02-28T14:41:36;101483.78;;;3.57;66.55
58072;BME280;60383;46.626;18.866;2023-02-28T14:44:20;101500.72;;;3.60;66.64
58072;BME280;60383;46.626;18.866;2023-02-28T14:46:50;101488.13;;;3.75;66.13
58072;BME280;60383;46.626;18.866;2023-02-28T14:49:31;101497.88;;;3.79;65.33
58072;BME280;60383;46.626;18.866;2023-02-28T14:52:07;101493.22;;;3.81;64.85
58072;BME280;60383;46.626;18.866;2023-02-28T14:54:38;101489.09;;;3.74;65.19
58072;BME280;60383;46.626;18.866;2023-02-28T14:57:04;101485.97;;;3.66;66.09
58072;BME280;60383;46.626;18.866;2023-02-28T14:59:35;101489.38;;;3.86;65.56
58072;BME280;60383;46.626;18.866;2023-02-28T15:02:24;101485.16;;;3.80;65.22
58072;BME280;60383;46.626;18.866;2023-02-28T15:05:01;101473.72;;;3.75;64.77
58072;BME280;60383;46.626;18.866;2023-02-28T15:07:27;101484.47;;;3.92;64.53
58072;BME280;60383;46.626;18.866;2023-02-28T15:10:08;101489.25;;;4.03;64.69
58072;BME280;60383;46.626;18.866;2023-02-28T15:12:35;101483.50;;;3.93;64.49
58072;BME280;60383;46.626;18.866;2023-02-28T15:15:01;101485.44;;;3.91;65.66
58072;BME280;60383;46.626;18.866;2023-02-28T15:17:27;101485.88;;;3.83;64.62